Mississippi River (Missouri), Chester (07020500)

StateMissouriCurrentPotential (520000 cfs)
RiverMississippi RiverFlood - The river is flooding. Obstacles can be treacherous or deadly. The river should be avoided at this stage for casual trips and definitely for the inexperienced. Trips should be attempted only with protective gear and equipment.Flood(none)
Updated2019-10-13 20:30 (25 minutes ago)High - The river is high and potentially dangerous, especially for the young and / or inexperienced. Normal stream obstacles are sometimes difficult to navigate. Extended distances can be attempted, but canoe travel may not be advisable.High(none)
Discharge520000 cfs (median: 127000 cfs)Good - Conditions are ideal for a canoe or kayak. Boats typically will drag on fewer than one-quarter of riffles, if at all, and portages are unnecessary or rare. Normal float lengths can be attempted without a problem.Good(none)
Height32.79 feetLow - River is low but can still be floated. Some riffles are okay but most come with significant dragging and might need a portage. Float lengths should be reduced to accommodate low flow, dragging, and portages.Low(none)
TrendSteady (rising over 24 hours)Poor - River is too low to float comfortably. Most or all riffles will drag or must be portaged and some obstacles (such as slick shelf rock) cause undue problems. Avoid the river at this stage for casual paddling trips.Poor(none)
USGSExternal icon USGS Site for Chester (07020500)LocationExternal icon Google Maps

Trending Data

Plot Image
ObservationHeightDischargeMaximum
Discharge
Minimum
Discharge
Mean
Discharge
P05P10P20P25P50
(Median)
P75P80P90P95
2019-10-13 20:30 32.79 520000 714000 (1987) 59500 (1957) 163000 62700 69900 82800 93900 127000 206000 234000 320000 346000
2019-10-13 20:00 32.79 520000 714000 (1987) 59500 (1957) 163000 62700 69900 82800 93900 127000 206000 234000 320000 346000
2019-10-13 19:30 32.87 521000 714000 (1987) 59500 (1957) 163000 62700 69900 82800 93900 127000 206000 234000 320000 346000
2019-10-13 19:00 32.62 516000 714000 (1987) 59500 (1957) 163000 62700 69900 82800 93900 127000 206000 234000 320000 346000
2019-10-13 18:30 32.66 517000 714000 (1987) 59500 (1957) 163000 62700 69900 82800 93900 127000 206000 234000 320000 346000
2019-10-13 18:00 32.64 517000 714000 (1987) 59500 (1957) 163000 62700 69900 82800 93900 127000 206000 234000 320000 346000
2019-10-13 17:30 32.77 519000 714000 (1987) 59500 (1957) 163000 62700 69900 82800 93900 127000 206000 234000 320000 346000
2019-10-13 17:00 32.97 524000 714000 (1987) 59500 (1957) 163000 62700 69900 82800 93900 127000 206000 234000 320000 346000
2019-10-13 16:30 32.95 523000 714000 (1987) 59500 (1957) 163000 62700 69900 82800 93900 127000 206000 234000 320000 346000
2019-10-13 16:00 33.04 525000 714000 (1987) 59500 (1957) 163000 62700 69900 82800 93900 127000 206000 234000 320000 346000
2019-10-13 15:30 32.86 521000 714000 (1987) 59500 (1957) 163000 62700 69900 82800 93900 127000 206000 234000 320000 346000
2019-10-13 15:00 32.55 515000 714000 (1987) 59500 (1957) 163000 62700 69900 82800 93900 127000 206000 234000 320000 346000
2019-10-13 14:30 32.92 523000 714000 (1987) 59500 (1957) 163000 62700 69900 82800 93900 127000 206000 234000 320000 346000
2019-10-13 14:00 32.74 519000 714000 (1987) 59500 (1957) 163000 62700 69900 82800 93900 127000 206000 234000 320000 346000
2019-10-13 13:30 32.89 522000 714000 (1987) 59500 (1957) 163000 62700 69900 82800 93900 127000 206000 234000 320000 346000
2019-10-13 13:00 32.75 519000 714000 (1987) 59500 (1957) 163000 62700 69900 82800 93900 127000 206000 234000 320000 346000
2019-10-13 12:30 32.80 520000 714000 (1987) 59500 (1957) 163000 62700 69900 82800 93900 127000 206000 234000 320000 346000
2019-10-13 12:00 32.76 519000 714000 (1987) 59500 (1957) 163000 62700 69900 82800 93900 127000 206000 234000 320000 346000
2019-10-13 11:30 32.81 520000 714000 (1987) 59500 (1957) 163000 62700 69900 82800 93900 127000 206000 234000 320000 346000
2019-10-13 11:00 32.62 516000 714000 (1987) 59500 (1957) 163000 62700 69900 82800 93900 127000 206000 234000 320000 346000
2019-10-13 10:30 32.71 518000 714000 (1987) 59500 (1957) 163000 62700 69900 82800 93900 127000 206000 234000 320000 346000
2019-10-13 10:00 32.83 521000 714000 (1987) 59500 (1957) 163000 62700 69900 82800 93900 127000 206000 234000 320000 346000
2019-10-13 09:30 32.83 521000 714000 (1987) 59500 (1957) 163000 62700 69900 82800 93900 127000 206000 234000 320000 346000
2019-10-13 09:00 32.74 519000 714000 (1987) 59500 (1957) 163000 62700 69900 82800 93900 127000 206000 234000 320000 346000
2019-10-13 08:30 32.68 517000 714000 (1987) 59500 (1957) 163000 62700 69900 82800 93900 127000 206000 234000 320000 346000
2019-10-13 08:00 32.54 514000 714000 (1987) 59500 (1957) 163000 62700 69900 82800 93900 127000 206000 234000 320000 346000
2019-10-13 07:30 32.55 515000 714000 (1987) 59500 (1957) 163000 62700 69900 82800 93900 127000 206000 234000 320000 346000
2019-10-13 07:00 32.77 519000 714000 (1987) 59500 (1957) 163000 62700 69900 82800 93900 127000 206000 234000 320000 346000
2019-10-13 06:30 32.62 516000 714000 (1987) 59500 (1957) 163000 62700 69900 82800 93900 127000 206000 234000 320000 346000
2019-10-13 06:00 32.66 517000 714000 (1987) 59500 (1957) 163000 62700 69900 82800 93900 127000 206000 234000 320000 346000
2019-10-13 05:30 32.52 514000 714000 (1987) 59500 (1957) 163000 62700 69900 82800 93900 127000 206000 234000 320000 346000
2019-10-13 05:00 32.66 517000 714000 (1987) 59500 (1957) 163000 62700 69900 82800 93900 127000 206000 234000 320000 346000
2019-10-13 04:30 32.50 514000 714000 (1987) 59500 (1957) 163000 62700 69900 82800 93900 127000 206000 234000 320000 346000
2019-10-13 04:00 32.59 516000 714000 (1987) 59500 (1957) 163000 62700 69900 82800 93900 127000 206000 234000 320000 346000
2019-10-13 03:30 32.49 513000 714000 (1987) 59500 (1957) 163000 62700 69900 82800 93900 127000 206000 234000 320000 346000
2019-10-13 03:00 32.53 514000 714000 (1987) 59500 (1957) 163000 62700 69900 82800 93900 127000 206000 234000 320000 346000
2019-10-13 02:30 32.63 516000 714000 (1987) 59500 (1957) 163000 62700 69900 82800 93900 127000 206000 234000 320000 346000
2019-10-13 02:00 32.62 516000 714000 (1987) 59500 (1957) 163000 62700 69900 82800 93900 127000 206000 234000 320000 346000
2019-10-13 01:30 32.72 518000 714000 (1987) 59500 (1957) 163000 62700 69900 82800 93900 127000 206000 234000 320000 346000
2019-10-13 01:00 32.56 515000 714000 (1987) 59500 (1957) 163000 62700 69900 82800 93900 127000 206000 234000 320000 346000
2019-10-13 00:30 32.57 515000 714000 (1987) 59500 (1957) 163000 62700 69900 82800 93900 127000 206000 234000 320000 346000
2019-10-13 00:00 32.82 520000 714000 (1987) 59500 (1957) 163000 62700 69900 82800 93900 127000 206000 234000 320000 346000
2019-10-12 23:30 32.65 517000 732000 (1987) 59500 (1957) 161000 64900 70500 81600 91800 127000 177000 231000 339000 360000
2019-10-12 23:00 32.51 514000 732000 (1987) 59500 (1957) 161000 64900 70500 81600 91800 127000 177000 231000 339000 360000
2019-10-12 22:30 32.59 516000 732000 (1987) 59500 (1957) 161000 64900 70500 81600 91800 127000 177000 231000 339000 360000
2019-10-12 22:00 32.74 519000 732000 (1987) 59500 (1957) 161000 64900 70500 81600 91800 127000 177000 231000 339000 360000
2019-10-12 21:30 32.66 517000 732000 (1987) 59500 (1957) 161000 64900 70500 81600 91800 127000 177000 231000 339000 360000
2019-10-12 21:00 32.53 514000 732000 (1987) 59500 (1957) 161000 64900 70500 81600 91800 127000 177000 231000 339000 360000
2019-10-12 20:30 32.70 518000 732000 (1987) 59500 (1957) 161000 64900 70500 81600 91800 127000 177000 231000 339000 360000
2019-10-12 20:00 32.63 516000 732000 (1987) 59500 (1957) 161000 64900 70500 81600 91800 127000 177000 231000 339000 360000
2019-10-12 19:30 32.64 517000 732000 (1987) 59500 (1957) 161000 64900 70500 81600 91800 127000 177000 231000 339000 360000
2019-10-12 19:00 32.63 516000 732000 (1987) 59500 (1957) 161000 64900 70500 81600 91800 127000 177000 231000 339000 360000
2019-10-12 18:30 32.28 509000 732000 (1987) 59500 (1957) 161000 64900 70500 81600 91800 127000 177000 231000 339000 360000
2019-10-12 18:00 32.57 515000 732000 (1987) 59500 (1957) 161000 64900 70500 81600 91800 127000 177000 231000 339000 360000
2019-10-12 17:30 32.61 516000 732000 (1987) 59500 (1957) 161000 64900 70500 81600 91800 127000 177000 231000 339000 360000
2019-10-12 17:00 32.50 514000 732000 (1987) 59500 (1957) 161000 64900 70500 81600 91800 127000 177000 231000 339000 360000
2019-10-12 16:30 32.52 514000 732000 (1987) 59500 (1957) 161000 64900 70500 81600 91800 127000 177000 231000 339000 360000
2019-10-12 16:00 32.55 515000 732000 (1987) 59500 (1957) 161000 64900 70500 81600 91800 127000 177000 231000 339000 360000
2019-10-12 15:30 32.25 508000 732000 (1987) 59500 (1957) 161000 64900 70500 81600 91800 127000 177000 231000 339000 360000
2019-10-12 15:00 32.59 516000 732000 (1987) 59500 (1957) 161000 64900 70500 81600 91800 127000 177000 231000 339000 360000
2019-10-12 14:30 32.37 511000 732000 (1987) 59500 (1957) 161000 64900 70500 81600 91800 127000 177000 231000 339000 360000
2019-10-12 14:00 32.75 519000 732000 (1987) 59500 (1957) 161000 64900 70500 81600 91800 127000 177000 231000 339000 360000
2019-10-12 13:30 32.48 513000 732000 (1987) 59500 (1957) 161000 64900 70500 81600 91800 127000 177000 231000 339000 360000
2019-10-12 13:00 32.52 514000 732000 (1987) 59500 (1957) 161000 64900 70500 81600 91800 127000 177000 231000 339000 360000
2019-10-12 12:30 32.47 513000 732000 (1987) 59500 (1957) 161000 64900 70500 81600 91800 127000 177000 231000 339000 360000
2019-10-12 12:00 32.46 513000 732000 (1987) 59500 (1957) 161000 64900 70500 81600 91800 127000 177000 231000 339000 360000
2019-10-12 11:30 32.46 513000 732000 (1987) 59500 (1957) 161000 64900 70500 81600 91800 127000 177000 231000 339000 360000
2019-10-12 11:00 32.48 513000 732000 (1987) 59500 (1957) 161000 64900 70500 81600 91800 127000 177000 231000 339000 360000
2019-10-12 10:30 32.26 509000 732000 (1987) 59500 (1957) 161000 64900 70500 81600 91800 127000 177000 231000 339000 360000
2019-10-12 10:00 32.33 510000 732000 (1987) 59500 (1957) 161000 64900 70500 81600 91800 127000 177000 231000 339000 360000
2019-10-12 09:30 32.43 512000 732000 (1987) 59500 (1957) 161000 64900 70500 81600 91800 127000 177000 231000 339000 360000
2019-10-12 09:00 32.33 510000 732000 (1987) 59500 (1957) 161000 64900 70500 81600 91800 127000 177000 231000 339000 360000
2019-10-12 08:30 32.27 509000 732000 (1987) 59500 (1957) 161000 64900 70500 81600 91800 127000 177000 231000 339000 360000
2019-10-12 08:00 32.38 511000 732000 (1987) 59500 (1957) 161000 64900 70500 81600 91800 127000 177000 231000 339000 360000
2019-10-12 07:30 32.31 510000 732000 (1987) 59500 (1957) 161000 64900 70500 81600 91800 127000 177000 231000 339000 360000
2019-10-12 07:00 32.25 508000 732000 (1987) 59500 (1957) 161000 64900 70500 81600 91800 127000 177000 231000 339000 360000
2019-10-12 06:30 32.37 511000 732000 (1987) 59500 (1957) 161000 64900 70500 81600 91800 127000 177000 231000 339000 360000
2019-10-12 06:00 32.22 508000 732000 (1987) 59500 (1957) 161000 64900 70500 81600 91800 127000 177000 231000 339000 360000
2019-10-12 05:30 32.39 511000 732000 (1987) 59500 (1957) 161000 64900 70500 81600 91800 127000 177000 231000 339000 360000
2019-10-12 05:00 32.49 513000 732000 (1987) 59500 (1957) 161000 64900 70500 81600 91800 127000 177000 231000 339000 360000
2019-10-12 04:30 32.21 507000 732000 (1987) 59500 (1957) 161000 64900 70500 81600 91800 127000 177000 231000 339000 360000
2019-10-12 04:00 32.25 508000 732000 (1987) 59500 (1957) 161000 64900 70500 81600 91800 127000 177000 231000 339000 360000
2019-10-12 03:30 32.47 513000 732000 (1987) 59500 (1957) 161000 64900 70500 81600 91800 127000 177000 231000 339000 360000
2019-10-12 03:00 32.25 508000 732000 (1987) 59500 (1957) 161000 64900 70500 81600 91800 127000 177000 231000 339000 360000
2019-10-12 02:30 32.33 510000 732000 (1987) 59500 (1957) 161000 64900 70500 81600 91800 127000 177000 231000 339000 360000
2019-10-12 02:00 32.46 513000 732000 (1987) 59500 (1957) 161000 64900 70500 81600 91800 127000 177000 231000 339000 360000
2019-10-12 01:30 32.15 506000 732000 (1987) 59500 (1957) 161000 64900 70500 81600 91800 127000 177000 231000 339000 360000
2019-10-12 01:00 32.24 508000 732000 (1987) 59500 (1957) 161000 64900 70500 81600 91800 127000 177000 231000 339000 360000
2019-10-12 00:30 32.27 509000 732000 (1987) 59500 (1957) 161000 64900 70500 81600 91800 127000 177000 231000 339000 360000
2019-10-12 00:00 32.26 509000 732000 (1987) 59500 (1957) 161000 64900 70500 81600 91800 127000 177000 231000 339000 360000
2019-10-11 23:30 32.39 511000 742000 (1987) 60200 (1957) 161000 66300 72900 83900 92000 125000 172000 203000 356000 384000
2019-10-11 23:00 32.29 509000 742000 (1987) 60200 (1957) 161000 66300 72900 83900 92000 125000 172000 203000 356000 384000
2019-10-11 22:30 32.33 510000 742000 (1987) 60200 (1957) 161000 66300 72900 83900 92000 125000 172000 203000 356000 384000
2019-10-11 22:00 32.26 509000 742000 (1987) 60200 (1957) 161000 66300 72900 83900 92000 125000 172000 203000 356000 384000
2019-10-11 21:30 32.51 514000 742000 (1987) 60200 (1957) 161000 66300 72900 83900 92000 125000 172000 203000 356000 384000
2019-10-11 21:00 32.23 508000 742000 (1987) 60200 (1957) 161000 66300 72900 83900 92000 125000 172000 203000 356000 384000
2019-10-11 20:30 32.35 510000 742000 (1987) 60200 (1957) 161000 66300 72900 83900 92000 125000 172000 203000 356000 384000
2019-10-11 20:00 32.27 509000 742000 (1987) 60200 (1957) 161000 66300 72900 83900 92000 125000 172000 203000 356000 384000
2019-10-11 19:30 32.27 509000 742000 (1987) 60200 (1957) 161000 66300 72900 83900 92000 125000 172000 203000 356000 384000
2019-10-11 19:00 32.26 509000 742000 (1987) 60200 (1957) 161000 66300 72900 83900 92000 125000 172000 203000 356000 384000
2019-10-11 18:30 32.18 507000 742000 (1987) 60200 (1957) 161000 66300 72900 83900 92000 125000 172000 203000 356000 384000
2019-10-11 18:00 32.33 510000 742000 (1987) 60200 (1957) 161000 66300 72900 83900 92000 125000 172000 203000 356000 384000
2019-10-11 17:30 32.41 512000 742000 (1987) 60200 (1957) 161000 66300 72900 83900 92000 125000 172000 203000 356000 384000
2019-10-11 17:00 32.31 510000 742000 (1987) 60200 (1957) 161000 66300 72900 83900 92000 125000 172000 203000 356000 384000
2019-10-11 16:30 32.21 507000 742000 (1987) 60200 (1957) 161000 66300 72900 83900 92000 125000 172000 203000 356000 384000
2019-10-11 16:00 32.45 513000 742000 (1987) 60200 (1957) 161000 66300 72900 83900 92000 125000 172000 203000 356000 384000
2019-10-11 15:30 32.24 508000 742000 (1987) 60200 (1957) 161000 66300 72900 83900 92000 125000 172000 203000 356000 384000
2019-10-11 15:00 32.38 511000 742000 (1987) 60200 (1957) 161000 66300 72900 83900 92000 125000 172000 203000 356000 384000
2019-10-11 14:30 32.37 511000 742000 (1987) 60200 (1957) 161000 66300 72900 83900 92000 125000 172000 203000 356000 384000
2019-10-11 14:00 32.23 508000 742000 (1987) 60200 (1957) 161000 66300 72900 83900 92000 125000 172000 203000 356000 384000
2019-10-11 13:30 32.19 507000 742000 (1987) 60200 (1957) 161000 66300 72900 83900 92000 125000 172000 203000 356000 384000
2019-10-11 13:00 32.20 507000 742000 (1987) 60200 (1957) 161000 66300 72900 83900 92000 125000 172000 203000 356000 384000
2019-10-11 12:30 32.31 510000 742000 (1987) 60200 (1957) 161000 66300 72900 83900 92000 125000 172000 203000 356000 384000
2019-10-11 12:00 32.01 503000 742000 (1987) 60200 (1957) 161000 66300 72900 83900 92000 125000 172000 203000 356000 384000
2019-10-11 11:30 32.13 506000 742000 (1987) 60200 (1957) 161000 66300 72900 83900 92000 125000 172000 203000 356000 384000
2019-10-11 11:00 32.27 509000 742000 (1987) 60200 (1957) 161000 66300 72900 83900 92000 125000 172000 203000 356000 384000
2019-10-11 10:30 32.27 509000 742000 (1987) 60200 (1957) 161000 66300 72900 83900 92000 125000 172000 203000 356000 384000
2019-10-11 10:00 32.27 509000 742000 (1987) 60200 (1957) 161000 66300 72900 83900 92000 125000 172000 203000 356000 384000
2019-10-11 09:30 32.16 506000 742000 (1987) 60200 (1957) 161000 66300 72900 83900 92000 125000 172000 203000 356000 384000
2019-10-11 09:00 32.35 510000 742000 (1987) 60200 (1957) 161000 66300 72900 83900 92000 125000 172000 203000 356000 384000
2019-10-11 08:30 32.32 510000 742000 (1987) 60200 (1957) 161000 66300 72900 83900 92000 125000 172000 203000 356000 384000
2019-10-11 08:00 32.15 506000 742000 (1987) 60200 (1957) 161000 66300 72900 83900 92000 125000 172000 203000 356000 384000
2019-10-11 07:30 32.30 509000 742000 (1987) 60200 (1957) 161000 66300 72900 83900 92000 125000 172000 203000 356000 384000
2019-10-11 07:00 32.01 503000 742000 (1987) 60200 (1957) 161000 66300 72900 83900 92000 125000 172000 203000 356000 384000
2019-10-11 06:30 32.22 508000 742000 (1987) 60200 (1957) 161000 66300 72900 83900 92000 125000 172000 203000 356000 384000
2019-10-11 06:00 32.24 508000 742000 (1987) 60200 (1957) 161000 66300 72900 83900 92000 125000 172000 203000 356000 384000
2019-10-11 05:30 32.26 509000 742000 (1987) 60200 (1957) 161000 66300 72900 83900 92000 125000 172000 203000 356000 384000
2019-10-11 05:00 32.24 508000 742000 (1987) 60200 (1957) 161000 66300 72900 83900 92000 125000 172000 203000 356000 384000
2019-10-11 04:30 31.99 503000 742000 (1987) 60200 (1957) 161000 66300 72900 83900 92000 125000 172000 203000 356000 384000
2019-10-11 04:00 32.17 507000 742000 (1987) 60200 (1957) 161000 66300 72900 83900 92000 125000 172000 203000 356000 384000
2019-10-11 03:30 32.03 504000 742000 (1987) 60200 (1957) 161000 66300 72900 83900 92000 125000 172000 203000 356000 384000
2019-10-11 03:00 32.15 506000 742000 (1987) 60200 (1957) 161000 66300 72900 83900 92000 125000 172000 203000 356000 384000
2019-10-11 02:30 31.97 502000 742000 (1987) 60200 (1957) 161000 66300 72900 83900 92000 125000 172000 203000 356000 384000
2019-10-11 02:00 32.05 504000 742000 (1987) 60200 (1957) 161000 66300 72900 83900 92000 125000 172000 203000 356000 384000
2019-10-11 01:30 31.99 503000 742000 (1987) 60200 (1957) 161000 66300 72900 83900 92000 125000 172000 203000 356000 384000
2019-10-11 01:00 31.87 500000 742000 (1987) 60200 (1957) 161000 66300 72900 83900 92000 125000 172000 203000 356000 384000
2019-10-11 00:30 32.08 505000 742000 (1987) 60200 (1957) 161000 66300 72900 83900 92000 125000 172000 203000 356000 384000
2019-10-11 00:00 31.98 503000 742000 (1987) 60200 (1957) 161000 66300 72900 83900 92000 125000 172000 203000 356000 384000
2019-10-10 23:30 32.02 503000 744000 (1987) 60200 (1957) 162000 69200 72300 84000 92100 128000 173000 205000 354000 397000
2019-10-10 23:00 32.02 503000 744000 (1987) 60200 (1957) 162000 69200 72300 84000 92100 128000 173000 205000 354000 397000
2019-10-10 22:30 32.05 504000 744000 (1987) 60200 (1957) 162000 69200 72300 84000 92100 128000 173000 205000 354000 397000
2019-10-10 22:00 32.08 505000 744000 (1987) 60200 (1957) 162000 69200 72300 84000 92100 128000 173000 205000 354000 397000
2019-10-10 21:30 32.08 505000 744000 (1987) 60200 (1957) 162000 69200 72300 84000 92100 128000 173000 205000 354000 397000
2019-10-10 21:00 32.04 504000 744000 (1987) 60200 (1957) 162000 69200 72300 84000 92100 128000 173000 205000 354000 397000
2019-10-10 20:30 32.03 504000 744000 (1987) 60200 (1957) 162000 69200 72300 84000 92100 128000 173000 205000 354000 397000
2019-10-10 20:00 32.09 505000 744000 (1987) 60200 (1957) 162000 69200 72300 84000 92100 128000 173000 205000 354000 397000
2019-10-10 19:30 32.00 503000 744000 (1987) 60200 (1957) 162000 69200 72300 84000 92100 128000 173000 205000 354000 397000
2019-10-10 19:00 31.99 503000 744000 (1987) 60200 (1957) 162000 69200 72300 84000 92100 128000 173000 205000 354000 397000
2019-10-10 18:30 32.12 506000 744000 (1987) 60200 (1957) 162000 69200 72300 84000 92100 128000 173000 205000 354000 397000
2019-10-10 18:00 31.93 502000 744000 (1987) 60200 (1957) 162000 69200 72300 84000 92100 128000 173000 205000 354000 397000
2019-10-10 17:30 32.01 503000 744000 (1987) 60200 (1957) 162000 69200 72300 84000 92100 128000 173000 205000 354000 397000
2019-10-10 17:00 32.06 504000 744000 (1987) 60200 (1957) 162000 69200 72300 84000 92100 128000 173000 205000 354000 397000
2019-10-10 16:30 31.99 503000 744000 (1987) 60200 (1957) 162000 69200 72300 84000 92100 128000 173000 205000 354000 397000
2019-10-10 16:00 31.87 500000 744000 (1987) 60200 (1957) 162000 69200 72300 84000 92100 128000 173000 205000 354000 397000
2019-10-10 15:30 31.73 497000 744000 (1987) 60200 (1957) 162000 69200 72300 84000 92100 128000 173000 205000 354000 397000
2019-10-10 15:00 32.12 506000 744000 (1987) 60200 (1957) 162000 69200 72300 84000 92100 128000 173000 205000 354000 397000
2019-10-10 14:30 31.89 501000 744000 (1987) 60200 (1957) 162000 69200 72300 84000 92100 128000 173000 205000 354000 397000
2019-10-10 14:00 32.05 504000 744000 (1987) 60200 (1957) 162000 69200 72300 84000 92100 128000 173000 205000 354000 397000
2019-10-10 13:30 31.97 502000 744000 (1987) 60200 (1957) 162000 69200 72300 84000 92100 128000 173000 205000 354000 397000
2019-10-10 13:00 32.01 503000 744000 (1987) 60200 (1957) 162000 69200 72300 84000 92100 128000 173000 205000 354000 397000
2019-10-10 12:30 31.98 503000 744000 (1987) 60200 (1957) 162000 69200 72300 84000 92100 128000 173000 205000 354000 397000
2019-10-10 12:00 32.08 505000 744000 (1987) 60200 (1957) 162000 69200 72300 84000 92100 128000 173000 205000 354000 397000
2019-10-10 11:30 31.97 502000 744000 (1987) 60200 (1957) 162000 69200 72300 84000 92100 128000 173000 205000 354000 397000
2019-10-10 11:00 31.89 501000 744000 (1987) 60200 (1957) 162000 69200 72300 84000 92100 128000 173000 205000 354000 397000
2019-10-10 10:30 31.85 500000 744000 (1987) 60200 (1957) 162000 69200 72300 84000 92100 128000 173000 205000 354000 397000
2019-10-10 10:00 32.00 503000 744000 (1987) 60200 (1957) 162000 69200 72300 84000 92100 128000 173000 205000 354000 397000
2019-10-10 09:30 31.80 499000 744000 (1987) 60200 (1957) 162000 69200 72300 84000 92100 128000 173000 205000 354000 397000
2019-10-10 09:00 31.84 500000 744000 (1987) 60200 (1957) 162000 69200 72300 84000 92100 128000 173000 205000 354000 397000
2019-10-10 08:30 31.89 501000 744000 (1987) 60200 (1957) 162000 69200 72300 84000 92100 128000 173000 205000 354000 397000
2019-10-10 08:00 32.05 504000 744000 (1987) 60200 (1957) 162000 69200 72300 84000 92100 128000 173000 205000 354000 397000
2019-10-10 07:30 31.88 501000 744000 (1987) 60200 (1957) 162000 69200 72300 84000 92100 128000 173000 205000 354000 397000
2019-10-10 07:00 31.99 503000 744000 (1987) 60200 (1957) 162000 69200 72300 84000 92100 128000 173000 205000 354000 397000
2019-10-10 06:30 31.93 502000 744000 (1987) 60200 (1957) 162000 69200 72300 84000 92100 128000 173000 205000 354000 397000
2019-10-10 06:00 31.90 501000 744000 (1987) 60200 (1957) 162000 69200 72300 84000 92100 128000 173000 205000 354000 397000
2019-10-10 05:30 31.84 500000 744000 (1987) 60200 (1957) 162000 69200 72300 84000 92100 128000 173000 205000 354000 397000
2019-10-10 05:00 31.87 500000 744000 (1987) 60200 (1957) 162000 69200 72300 84000 92100 128000 173000 205000 354000 397000
2019-10-10 04:30 31.79 499000 744000 (1987) 60200 (1957) 162000 69200 72300 84000 92100 128000 173000 205000 354000 397000
2019-10-10 04:00 31.86 500000 744000 (1987) 60200 (1957) 162000 69200 72300 84000 92100 128000 173000 205000 354000 397000
2019-10-10 03:30 31.90 501000 744000 (1987) 60200 (1957) 162000 69200 72300 84000 92100 128000 173000 205000 354000 397000
2019-10-10 03:00 31.96 502000 744000 (1987) 60200 (1957) 162000 69200 72300 84000 92100 128000 173000 205000 354000 397000
2019-10-10 02:30 31.88 501000 744000 (1987) 60200 (1957) 162000 69200 72300 84000 92100 128000 173000 205000 354000 397000
2019-10-10 02:00 31.92 501000 744000 (1987) 60200 (1957) 162000 69200 72300 84000 92100 128000 173000 205000 354000 397000
2019-10-10 01:30 31.78 498000 744000 (1987) 60200 (1957) 162000 69200 72300 84000 92100 128000 173000 205000 354000 397000
2019-10-10 01:00 31.87 500000 744000 (1987) 60200 (1957) 162000 69200 72300 84000 92100 128000 173000 205000 354000 397000
2019-10-10 00:30 32.05 504000 744000 (1987) 60200 (1957) 162000 69200 72300 84000 92100 128000 173000 205000 354000 397000
2019-10-10 00:00 31.97 502000 744000 (1987) 60200 (1957) 162000 69200 72300 84000 92100 128000 173000 205000 354000 397000
2019-10-09 23:30 31.81 499000 731000 (1987) 60200 (1957) 162000 70500 74500 86100 89400 128000 186000 208000 344000 407000
2019-10-09 23:00 31.86 500000 731000 (1987) 60200 (1957) 162000 70500 74500 86100 89400 128000 186000 208000 344000 407000
2019-10-09 22:30 31.92 501000 731000 (1987) 60200 (1957) 162000 70500 74500 86100 89400 128000 186000 208000 344000 407000
2019-10-09 22:00 31.86 500000 731000 (1987) 60200 (1957) 162000 70500 74500 86100 89400 128000 186000 208000 344000 407000
2019-10-09 21:30 31.81 499000 731000 (1987) 60200 (1957) 162000 70500 74500 86100 89400 128000 186000 208000 344000 407000
2019-10-09 21:00 31.69 497000 731000 (1987) 60200 (1957) 162000 70500 74500 86100 89400 128000 186000 208000 344000 407000
2019-10-09 20:30 31.80 499000 731000 (1987) 60200 (1957) 162000 70500 74500 86100 89400 128000 186000 208000 344000 407000
2019-10-09 20:00 31.73 497000 731000 (1987) 60200 (1957) 162000 70500 74500 86100 89400 128000 186000 208000 344000 407000
2019-10-09 19:30 31.71 497000 731000 (1987) 60200 (1957) 162000 70500 74500 86100 89400 128000 186000 208000 344000 407000
2019-10-09 19:00 31.78 498000 731000 (1987) 60200 (1957) 162000 70500 74500 86100 89400 128000 186000 208000 344000 407000
2019-10-09 18:30 31.91 501000 731000 (1987) 60200 (1957) 162000 70500 74500 86100 89400 128000 186000 208000 344000 407000
2019-10-09 18:00 31.85 500000 731000 (1987) 60200 (1957) 162000 70500 74500 86100 89400 128000 186000 208000 344000 407000
2019-10-09 17:30 31.77 498000 731000 (1987) 60200 (1957) 162000 70500 74500 86100 89400 128000 186000 208000 344000 407000
2019-10-09 17:00 31.93 502000 731000 (1987) 60200 (1957) 162000 70500 74500 86100 89400 128000 186000 208000 344000 407000
2019-10-09 16:30 31.94 502000 731000 (1987) 60200 (1957) 162000 70500 74500 86100 89400 128000 186000 208000 344000 407000
2019-10-09 16:00 31.91 501000 731000 (1987) 60200 (1957) 162000 70500 74500 86100 89400 128000 186000 208000 344000 407000
2019-10-09 15:30 31.91 501000 731000 (1987) 60200 (1957) 162000 70500 74500 86100 89400 128000 186000 208000 344000 407000
2019-10-09 15:00 31.83 500000 731000 (1987) 60200 (1957) 162000 70500 74500 86100 89400 128000 186000 208000 344000 407000
2019-10-09 14:30 31.82 499000 731000 (1987) 60200 (1957) 162000 70500 74500 86100 89400 128000 186000 208000 344000 407000
2019-10-09 14:00 31.90 501000 731000 (1987) 60200 (1957) 162000 70500 74500 86100 89400 128000 186000 208000 344000 407000
2019-10-09 13:30 31.86 500000 731000 (1987) 60200 (1957) 162000 70500 74500 86100 89400 128000 186000 208000 344000 407000
2019-10-09 13:00 31.86 500000 731000 (1987) 60200 (1957) 162000 70500 74500 86100 89400 128000 186000 208000 344000 407000
2019-10-09 12:30 31.84 500000 731000 (1987) 60200 (1957) 162000 70500 74500 86100 89400 128000 186000 208000 344000 407000
2019-10-09 12:00 31.84 500000 731000 (1987) 60200 (1957) 162000 70500 74500 86100 89400 128000 186000 208000 344000 407000
2019-10-09 11:30 31.79 499000 731000 (1987) 60200 (1957) 162000 70500 74500 86100 89400 128000 186000 208000 344000 407000
2019-10-09 11:00 31.78 498000 731000 (1987) 60200 (1957) 162000 70500 74500 86100 89400 128000 186000 208000 344000 407000
2019-10-09 10:30 31.71 497000 731000 (1987) 60200 (1957) 162000 70500 74500 86100 89400 128000 186000 208000 344000 407000
2019-10-09 10:00 31.65 496000 731000 (1987) 60200 (1957) 162000 70500 74500 86100 89400 128000 186000 208000 344000 407000
2019-10-09 09:30 31.66 496000 731000 (1987) 60200 (1957) 162000 70500 74500 86100 89400 128000 186000 208000 344000 407000
2019-10-09 08:30 31.65 496000 731000 (1987) 60200 (1957) 162000 70500 74500 86100 89400 128000 186000 208000 344000 407000
2019-10-09 08:00 31.55 494000 731000 (1987) 60200 (1957) 162000 70500 74500 86100 89400 128000 186000 208000 344000 407000
2019-10-09 07:30 31.75 498000 731000 (1987) 60200 (1957) 162000 70500 74500 86100 89400 128000 186000 208000 344000 407000
2019-10-09 07:00 31.65 496000 731000 (1987) 60200 (1957) 162000 70500 74500 86100 89400 128000 186000 208000 344000 407000
2019-10-09 06:30 31.60 495000 731000 (1987) 60200 (1957) 162000 70500 74500 86100 89400 128000 186000 208000 344000 407000
2019-10-09 06:00 31.57 494000 731000 (1987) 60200 (1957) 162000 70500 74500 86100 89400 128000 186000 208000 344000 407000
2019-10-09 05:30 31.70 497000 731000 (1987) 60200 (1957) 162000 70500 74500 86100 89400 128000 186000 208000 344000 407000
2019-10-09 05:00 31.75 498000 731000 (1987) 60200 (1957) 162000 70500 74500 86100 89400 128000 186000 208000 344000 407000
2019-10-09 04:30 31.59 495000 731000 (1987) 60200 (1957) 162000 70500 74500 86100 89400 128000 186000 208000 344000 407000
2019-10-09 04:00 31.68 496000 731000 (1987) 60200 (1957) 162000 70500 74500 86100 89400 128000 186000 208000 344000 407000
2019-10-09 03:30 31.69 497000 731000 (1987) 60200 (1957) 162000 70500 74500 86100 89400 128000 186000 208000 344000 407000
2019-10-09 03:00 31.69 497000 731000 (1987) 60200 (1957) 162000 70500 74500 86100 89400 128000 186000 208000 344000 407000
2019-10-09 02:30 31.88 501000 731000 (1987) 60200 (1957) 162000 70500 74500 86100 89400 128000 186000 208000 344000 407000
2019-10-09 02:00 31.69 497000 731000 (1987) 60200 (1957) 162000 70500 74500 86100 89400 128000 186000 208000 344000 407000
2019-10-09 01:30 31.67 496000 731000 (1987) 60200 (1957) 162000 70500 74500 86100 89400 128000 186000 208000 344000 407000
2019-10-09 01:00 31.61 495000 731000 (1987) 60200 (1957) 162000 70500 74500 86100 89400 128000 186000 208000 344000 407000
2019-10-09 00:30 31.73 497000 731000 (1987) 60200 (1957) 162000 70500 74500 86100 89400 128000 186000 208000 344000 407000
2019-10-09 00:00 31.49 492000 731000 (1987) 60200 (1957) 162000 70500 74500 86100 89400 128000 186000 208000 344000 407000
2019-10-08 23:30 31.62 495000 712000 (1987) 59500 (1957) 162000 69100 74300 88800 91400 126000 183000 206000 317000 388000
2019-10-08 23:00 31.63 495000 712000 (1987) 59500 (1957) 162000 69100 74300 88800 91400 126000 183000 206000 317000 388000
2019-10-08 22:30 31.69 497000 712000 (1987) 59500 (1957) 162000 69100 74300 88800 91400 126000 183000 206000 317000 388000
2019-10-08 22:00 31.77 498000 712000 (1987) 59500 (1957) 162000 69100 74300 88800 91400 126000 183000 206000 317000 388000
2019-10-08 21:30 31.63 495000 712000 (1987) 59500 (1957) 162000 69100 74300 88800 91400 126000 183000 206000 317000 388000
2019-10-08 21:00 31.77 498000 712000 (1987) 59500 (1957) 162000 69100 74300 88800 91400 126000 183000 206000 317000 388000
2019-10-08 20:30 31.77 498000 712000 (1987) 59500 (1957) 162000 69100 74300 88800 91400 126000 183000 206000 317000 388000
2019-10-08 20:00 31.65 496000 712000 (1987) 59500 (1957) 162000 69100 74300 88800 91400 126000 183000 206000 317000 388000
2019-10-08 19:30 31.54 494000 712000 (1987) 59500 (1957) 162000 69100 74300 88800 91400 126000 183000 206000 317000 388000
2019-10-08 19:00 31.62 495000 712000 (1987) 59500 (1957) 162000 69100 74300 88800 91400 126000 183000 206000 317000 388000
2019-10-08 18:30 31.61 495000 712000 (1987) 59500 (1957) 162000 69100 74300 88800 91400 126000 183000 206000 317000 388000
2019-10-08 18:00 31.82 499000 712000 (1987) 59500 (1957) 162000 69100 74300 88800 91400 126000 183000 206000 317000 388000
2019-10-08 17:30 31.57 494000 712000 (1987) 59500 (1957) 162000 69100 74300 88800 91400 126000 183000 206000 317000 388000
2019-10-08 17:00 31.67 496000 712000 (1987) 59500 (1957) 162000 69100 74300 88800 91400 126000 183000 206000 317000 388000
2019-10-08 16:30 31.89 501000 712000 (1987) 59500 (1957) 162000 69100 74300 88800 91400 126000 183000 206000 317000 388000
2019-10-08 16:00 31.70 497000 712000 (1987) 59500 (1957) 162000 69100 74300 88800 91400 126000 183000 206000 317000 388000
2019-10-08 15:30 31.76 498000 712000 (1987) 59500 (1957) 162000 69100 74300 88800 91400 126000 183000 206000 317000 388000
2019-10-08 15:00 31.76 498000 712000 (1987) 59500 (1957) 162000 69100 74300 88800 91400 126000 183000 206000 317000 388000
2019-10-08 14:30 31.77 498000 712000 (1987) 59500 (1957) 162000 69100 74300 88800 91400 126000 183000 206000 317000 388000
2019-10-08 14:00 31.76 498000 712000 (1987) 59500 (1957) 162000 69100 74300 88800 91400 126000 183000 206000 317000 388000
2019-10-08 13:30 31.86 500000 712000 (1987) 59500 (1957) 162000 69100 74300 88800 91400 126000 183000 206000 317000 388000
2019-10-08 13:00 31.72 497000 712000 (1987) 59500 (1957) 162000 69100 74300 88800 91400 126000 183000 206000 317000 388000
2019-10-08 12:30 31.73 497000 712000 (1987) 59500 (1957) 162000 69100 74300 88800 91400 126000 183000 206000 317000 388000
2019-10-08 12:00 31.70 497000 712000 (1987) 59500 (1957) 162000 69100 74300 88800 91400 126000 183000 206000 317000 388000
2019-10-08 11:30 31.44 491000 712000 (1987) 59500 (1957) 162000 69100 74300 88800 91400 126000 183000 206000 317000 388000
2019-10-08 11:00 31.77 498000 712000 (1987) 59500 (1957) 162000 69100 74300 88800 91400 126000 183000 206000 317000 388000
2019-10-08 10:30 31.02 483000 712000 (1987) 59500 (1957) 162000 69100 74300 88800 91400 126000 183000 206000 317000 388000
2019-10-08 10:00 31.30 489000 712000 (1987) 59500 (1957) 162000 69100 74300 88800 91400 126000 183000 206000 317000 388000
2019-10-08 09:30 31.12 485000 712000 (1987) 59500 (1957) 162000 69100 74300 88800 91400 126000 183000 206000 317000 388000
2019-10-08 09:00 31.00 482000 712000 (1987) 59500 (1957) 162000 69100 74300 88800 91400 126000 183000 206000 317000 388000
2019-10-08 08:30 31.14 485000 712000 (1987) 59500 (1957) 162000 69100 74300 88800 91400 126000 183000 206000 317000 388000
2019-10-08 08:00 31.16 486000 712000 (1987) 59500 (1957) 162000 69100 74300 88800 91400 126000 183000 206000 317000 388000
2019-10-08 07:30 31.22 487000 712000 (1987) 59500 (1957) 162000 69100 74300 88800 91400 126000 183000 206000 317000 388000
2019-10-08 07:00 31.19 486000 712000 (1987) 59500 (1957) 162000 69100 74300 88800 91400 126000 183000 206000 317000 388000
2019-10-08 06:30 31.20 487000 712000 (1987) 59500 (1957) 162000 69100 74300 88800 91400 126000 183000 206000 317000 388000
2019-10-08 06:00 31.25 488000 712000 (1987) 59500 (1957) 162000 69100 74300 88800 91400 126000 183000 206000 317000 388000
2019-10-08 05:30 31.31 489000 712000 (1987) 59500 (1957) 162000 69100 74300 88800 91400 126000 183000 206000 317000 388000
2019-10-08 05:00 31.22 487000 712000 (1987) 59500 (1957) 162000 69100 74300 88800 91400 126000 183000 206000 317000 388000
2019-10-08 04:30 31.33 489000 712000 (1987) 59500 (1957) 162000 69100 74300 88800 91400 126000 183000 206000 317000 388000
2019-10-08 04:00 31.15 485000 712000 (1987) 59500 (1957) 162000 69100 74300 88800 91400 126000 183000 206000 317000 388000
2019-10-08 03:30 31.16 486000 712000 (1987) 59500 (1957) 162000 69100 74300 88800 91400 126000 183000 206000 317000 388000
2019-10-08 03:00 31.19 486000 712000 (1987) 59500 (1957) 162000 69100 74300 88800 91400 126000 183000 206000 317000 388000
2019-10-08 02:30 31.15 485000 712000 (1987) 59500 (1957) 162000 69100 74300 88800 91400 126000 183000 206000 317000 388000
2019-10-08 02:00 31.25 488000 712000 (1987) 59500 (1957) 162000 69100 74300 88800 91400 126000 183000 206000 317000 388000
2019-10-08 01:30 31.21 487000 712000 (1987) 59500 (1957) 162000 69100 74300 88800 91400 126000 183000 206000 317000 388000
2019-10-08 01:00 31.28 488000 712000 (1987) 59500 (1957) 162000 69100 74300 88800 91400 126000 183000 206000 317000 388000
2019-10-08 00:30 30.93 481000 712000 (1987) 59500 (1957) 162000 69100 74300 88800 91400 126000 183000 206000 317000 388000
2019-10-08 00:00 31.29 488000 712000 (1987) 59500 (1957) 162000 69100 74300 88800 91400 126000 183000 206000 317000 388000
2019-10-07 23:30 31.31 489000 682000 (1987) 59500 (1957) 160000 70100 74100 87400 92500 126000 180000 202000 300000 374000
2019-10-07 23:00 31.41 491000 682000 (1987) 59500 (1957) 160000 70100 74100 87400 92500 126000 180000 202000 300000 374000
2019-10-07 22:30 31.17 486000 682000 (1987) 59500 (1957) 160000 70100 74100 87400 92500 126000 180000 202000 300000 374000
2019-10-07 22:00 31.12 485000 682000 (1987) 59500 (1957) 160000 70100 74100 87400 92500 126000 180000 202000 300000 374000
2019-10-07 21:30 31.12 485000 682000 (1987) 59500 (1957) 160000 70100 74100 87400 92500 126000 180000 202000 300000 374000
2019-10-07 21:00 31.21 487000 682000 (1987) 59500 (1957) 160000 70100 74100 87400 92500 126000 180000 202000 300000 374000
2019-10-07 20:30 31.23 487000 682000 (1987) 59500 (1957) 160000 70100 74100 87400 92500 126000 180000 202000 300000 374000
2019-10-07 20:00 31.19 486000 682000 (1987) 59500 (1957) 160000 70100 74100 87400 92500 126000 180000 202000 300000 374000
2019-10-07 19:30 30.94 481000 682000 (1987) 59500 (1957) 160000 70100 74100 87400 92500 126000 180000 202000 300000 374000
2019-10-07 19:00 31.37 490000 682000 (1987) 59500 (1957) 160000 70100 74100 87400 92500 126000 180000 202000 300000 374000
2019-10-07 18:30 31.19 486000 682000 (1987) 59500 (1957) 160000 70100 74100 87400 92500 126000 180000 202000 300000 374000
2019-10-07 18:00 31.18 486000 682000 (1987) 59500 (1957) 160000 70100 74100 87400 92500 126000 180000 202000 300000 374000
2019-10-07 17:30 31.17 486000 682000 (1987) 59500 (1957) 160000 70100 74100 87400 92500 126000 180000 202000 300000 374000
2019-10-07 17:00 31.36 490000 682000 (1987) 59500 (1957) 160000 70100 74100 87400 92500 126000 180000 202000 300000 374000
2019-10-07 16:30 31.15 485000 682000 (1987) 59500 (1957) 160000 70100 74100 87400 92500 126000 180000 202000 300000 374000
2019-10-07 16:00 31.17 486000 682000 (1987) 59500 (1957) 160000 70100 74100 87400 92500 126000 180000 202000 300000 374000
2019-10-07 15:30 31.26 488000 682000 (1987) 59500 (1957) 160000 70100 74100 87400 92500 126000 180000 202000 300000 374000
2019-10-07 15:00 31.40 491000 682000 (1987) 59500 (1957) 160000 70100 74100 87400 92500 126000 180000 202000 300000 374000
2019-10-07 14:30 31.20 487000 682000 (1987) 59500 (1957) 160000 70100 74100 87400 92500 126000 180000 202000 300000 374000
2019-10-07 14:00 31.28 488000 682000 (1987) 59500 (1957) 160000 70100 74100 87400 92500 126000 180000 202000 300000 374000
2019-10-07 13:30 31.36 490000 682000 (1987) 59500 (1957) 160000 70100 74100 87400 92500 126000 180000 202000 300000 374000
2019-10-07 13:00 31.39 490000 682000 (1987) 59500 (1957) 160000 70100 74100 87400 92500 126000 180000 202000 300000 374000
2019-10-07 12:30 31.04 483000 682000 (1987) 59500 (1957) 160000 70100 74100 87400 92500 126000 180000 202000 300000 374000
2019-10-07 12:00 31.13 485000 682000 (1987) 59500 (1957) 160000 70100 74100 87400 92500 126000 180000 202000 300000 374000
2019-10-07 11:30 31.10 484000 682000 (1987) 59500 (1957) 160000 70100 74100 87400 92500 126000 180000 202000 300000 374000
2019-10-07 11:00 31.08 484000 682000 (1987) 59500 (1957) 160000 70100 74100 87400 92500 126000 180000 202000 300000 374000
2019-10-07 10:30 31.14 485000 682000 (1987) 59500 (1957) 160000 70100 74100 87400 92500 126000 180000 202000 300000 374000
2019-10-07 10:00 31.09 484000 682000 (1987) 59500 (1957) 160000 70100 74100 87400 92500 126000 180000 202000 300000 374000
2019-10-07 09:30 31.20 487000 682000 (1987) 59500 (1957) 160000 70100 74100 87400 92500 126000 180000 202000 300000 374000
2019-10-07 09:00 30.93 481000 682000 (1987) 59500 (1957) 160000 70100 74100 87400 92500 126000 180000 202000 300000 374000
2019-10-07 08:30 31.18 486000 682000 (1987) 59500 (1957) 160000 70100 74100 87400 92500 126000 180000 202000 300000 374000
2019-10-07 08:00 31.18 486000 682000 (1987) 59500 (1957) 160000 70100 74100 87400 92500 126000 180000 202000 300000 374000
2019-10-07 07:30 31.19 486000 682000 (1987) 59500 (1957) 160000 70100 74100 87400 92500 126000 180000 202000 300000 374000
2019-10-07 07:00 31.16 486000 682000 (1987) 59500 (1957) 160000 70100 74100 87400 92500 126000 180000 202000 300000 374000
2019-10-07 06:30 31.06 484000 682000 (1987) 59500 (1957) 160000 70100 74100 87400 92500 126000 180000 202000 300000 374000
2019-10-07 06:00 31.17 486000 682000 (1987) 59500 (1957) 160000 70100 74100 87400 92500 126000 180000 202000 300000 374000
2019-10-07 05:30 31.19 486000 682000 (1987) 59500 (1957) 160000 70100 74100 87400 92500 126000 180000 202000 300000 374000
2019-10-07 05:00 31.10 484000 682000 (1987) 59500 (1957) 160000 70100 74100 87400 92500 126000 180000 202000 300000 374000
2019-10-07 04:30 31.06 484000 682000 (1987) 59500 (1957) 160000 70100 74100 87400 92500 126000 180000 202000 300000 374000
2019-10-07 04:00 30.82 479000 682000 (1987) 59500 (1957) 160000 70100 74100 87400 92500 126000 180000 202000 300000 374000
2019-10-07 03:30 30.79 478000 682000 (1987) 59500 (1957) 160000 70100 74100 87400 92500 126000 180000 202000 300000 374000
2019-10-07 03:00 31.12 485000 682000 (1987) 59500 (1957) 160000 70100 74100 87400 92500 126000 180000 202000 300000 374000
2019-10-07 02:30 30.97 482000 682000 (1987) 59500 (1957) 160000 70100 74100 87400 92500 126000 180000 202000 300000 374000
2019-10-07 02:00 31.10 484000 682000 (1987) 59500 (1957) 160000 70100 74100 87400 92500 126000 180000 202000 300000 374000
2019-10-07 01:30 30.95 481000 682000 (1987) 59500 (1957) 160000 70100 74100 87400 92500 126000 180000 202000 300000 374000
2019-10-07 01:00 31.16 486000 682000 (1987) 59500 (1957) 160000 70100 74100 87400 92500 126000 180000 202000 300000 374000
2019-10-07 00:30 30.97 482000 682000 (1987) 59500 (1957) 160000 70100 74100 87400 92500 126000 180000 202000 300000 374000
2019-10-07 00:00 31.09 484000 682000 (1987) 59500 (1957) 160000 70100 74100 87400 92500 126000 180000 202000 300000 374000
2019-10-06 23:30 30.96 482000 664000 (1994) 59500 (1957) 158000 70300 75000 87300 93400 125000 177000 199000 304000 389000
2019-10-06 23:00 31.09 484000 664000 (1994) 59500 (1957) 158000 70300 75000 87300 93400 125000 177000 199000 304000 389000
2019-10-06 22:30 30.89 480000 664000 (1994) 59500 (1957) 158000 70300 75000 87300 93400 125000 177000 199000 304000 389000
2019-10-06 22:00 30.98 482000 664000 (1994) 59500 (1957) 158000 70300 75000 87300 93400 125000 177000 199000 304000 389000
2019-10-06 21:30 31.07 484000 664000 (1994) 59500 (1957) 158000 70300 75000 87300 93400 125000 177000 199000 304000 389000
2019-10-06 21:00 30.80 478000 664000 (1994) 59500 (1957) 158000 70300 75000 87300 93400 125000 177000 199000 304000 389000
2019-10-06 20:30 31.08 484000 664000 (1994) 59500 (1957) 158000 70300 75000 87300 93400 125000 177000 199000 304000 389000
2019-10-06 20:00 30.88 480000 664000 (1994) 59500 (1957) 158000 70300 75000 87300 93400 125000 177000 199000 304000 389000
2019-10-06 19:30 30.89 480000 664000 (1994) 59500 (1957) 158000 70300 75000 87300 93400 125000 177000 199000 304000 389000
2019-10-06 19:00 30.95 481000 664000 (1994) 59500 (1957) 158000 70300 75000 87300 93400 125000 177000 199000 304000 389000
2019-10-06 18:30 31.05 483000 664000 (1994) 59500 (1957) 158000 70300 75000 87300 93400 125000 177000 199000 304000 389000
2019-10-06 18:00 31.02 483000 664000 (1994) 59500 (1957) 158000 70300 75000 87300 93400 125000 177000 199000 304000 389000
2019-10-06 17:30 30.92 481000 664000 (1994) 59500 (1957) 158000 70300 75000 87300 93400 125000 177000 199000 304000 389000
2019-10-06 17:00 30.60 474000 664000 (1994) 59500 (1957) 158000 70300 75000 87300 93400 125000 177000 199000 304000 389000
2019-10-06 16:30 30.94 481000 664000 (1994) 59500 (1957) 158000 70300 75000 87300 93400 125000 177000 199000 304000 389000
2019-10-06 16:00 31.05 483000 664000 (1994) 59500 (1957) 158000 70300 75000 87300 93400 125000 177000 199000 304000 389000
2019-10-06 15:30 30.80 478000 664000 (1994) 59500 (1957) 158000 70300 75000 87300 93400 125000 177000 199000 304000 389000
2019-10-06 15:00 30.98 482000 664000 (1994) 59500 (1957) 158000 70300 75000 87300 93400 125000 177000 199000 304000 389000
2019-10-06 14:30 31.01 483000 664000 (1994) 59500 (1957) 158000 70300 75000 87300 93400 125000 177000 199000 304000 389000
2019-10-06 14:00 30.86 480000 664000 (1994) 59500 (1957) 158000 70300 75000 87300 93400 125000 177000 199000 304000 389000
2019-10-06 13:30 30.99 482000 664000 (1994) 59500 (1957) 158000 70300 75000 87300 93400 125000 177000 199000 304000 389000
2019-10-06 13:00 31.03 483000 664000 (1994) 59500 (1957) 158000 70300 75000 87300 93400 125000 177000 199000 304000 389000
2019-10-06 12:30 30.88 480000 664000 (1994) 59500 (1957) 158000 70300 75000 87300 93400 125000 177000 199000 304000 389000
2019-10-06 12:00 30.90 480000 664000 (1994) 59500 (1957) 158000 70300 75000 87300 93400 125000 177000 199000 304000 389000
2019-10-06 11:30 30.90 480000 664000 (1994) 59500 (1957) 158000 70300 75000 87300 93400 125000 177000 199000 304000 389000
2019-10-06 11:00 30.91 481000 664000 (1994) 59500 (1957) 158000 70300 75000 87300 93400 125000 177000 199000 304000 389000
2019-10-06 10:30 30.94 481000 664000 (1994) 59500 (1957) 158000 70300 75000 87300 93400 125000 177000 199000 304000 389000
2019-10-06 10:00 30.99 482000 664000 (1994) 59500 (1957) 158000 70300 75000 87300 93400 125000 177000 199000 304000 389000
2019-10-06 09:30 30.93 481000 664000 (1994) 59500 (1957) 158000 70300 75000 87300 93400 125000 177000 199000 304000 389000
2019-10-06 09:00 30.61 474000 664000 (1994) 59500 (1957) 158000 70300 75000 87300 93400 125000 177000 199000 304000 389000
2019-10-06 08:30 30.89 480000 664000 (1994) 59500 (1957) 158000 70300 75000 87300 93400 125000 177000 199000 304000 389000
2019-10-06 08:00 30.98 482000 664000 (1994) 59500 (1957) 158000 70300 75000 87300 93400 125000 177000 199000 304000 389000
2019-10-06 07:30 31.00 482000 664000 (1994) 59500 (1957) 158000 70300 75000 87300 93400 125000 177000 199000 304000 389000
2019-10-06 07:00 30.65 475000 664000 (1994) 59500 (1957) 158000 70300 75000 87300 93400 125000 177000 199000 304000 389000
2019-10-06 06:30 30.75 477000 664000 (1994) 59500 (1957) 158000 70300 75000 87300 93400 125000 177000 199000 304000 389000
2019-10-06 06:00 30.97 482000 664000 (1994) 59500 (1957) 158000 70300 75000 87300 93400 125000 177000 199000 304000 389000
2019-10-06 05:30 30.72 477000 664000 (1994) 59500 (1957) 158000 70300 75000 87300 93400 125000 177000 199000 304000 389000
2019-10-06 05:00 30.65 475000 664000 (1994) 59500 (1957) 158000 70300 75000 87300 93400 125000 177000 199000 304000 389000
2019-10-06 04:30 30.83 479000 664000 (1994) 59500 (1957) 158000 70300 75000 87300 93400 125000 177000 199000 304000 389000
2019-10-06 04:00 30.78 478000 664000 (1994) 59500 (1957) 158000 70300 75000 87300 93400 125000 177000 199000 304000 389000
2019-10-06 03:30 30.83 479000 664000 (1994) 59500 (1957) 158000 70300 75000 87300 93400 125000 177000 199000 304000 389000
2019-10-06 03:00 30.80 478000 664000 (1994) 59500 (1957) 158000 70300 75000 87300 93400 125000 177000 199000 304000 389000
2019-10-06 02:30 30.69 476000 664000 (1994) 59500 (1957) 158000 70300 75000 87300 93400 125000 177000 199000 304000 389000
2019-10-06 02:00 31.00 482000 664000 (1994) 59500 (1957) 158000 70300 75000 87300 93400 125000 177000 199000 304000 389000
2019-10-06 01:30 30.76 478000 664000 (1994) 59500 (1957) 158000 70300 75000 87300 93400 125000 177000 199000 304000 389000
2019-10-06 01:00 30.74 477000 664000 (1994) 59500 (1957) 158000 70300 75000 87300 93400 125000 177000 199000 304000 389000
2019-10-06 00:30 30.80 478000 664000 (1994) 59500 (1957) 158000 70300 75000 87300 93400 125000 177000 199000 304000 389000
2019-10-06 00:00 30.85 479000 664000 (1994) 59500 (1957) 158000 70300 75000 87300 93400 125000 177000 199000 304000 389000

A total of 377 rows are displayed for years 1943 through 2019.

Trips for Mississippi River (Missouri), Chester (07020500)

DateStartEndDistanceConditionDischargeHeightFishingDetails

A total of 0 rows are displayed.

Condition Descriptions

Fishing Conditions

Fish Species

Notes

Classic Trip List

The classic River Trips application is still available for use. It is updated with the new system using a data retrofit. It is no longer maintained. The original River Trips application is no longer updated (as of 1 Dec 2016) but can be checked for errors or for the condition of the data before it was converted to the new system.